sensor_id;sensor_type;location;lat;lon;timestamp;temperature;humidity
69503;SHT31;56704;54.242;12.442;2023-10-08T00:01:12;12.02;74.49
69503;SHT31;56704;54.242;12.442;2023-10-08T00:03:42;11.98;74.47
69503;SHT31;56704;54.242;12.442;2023-10-08T00:06:14;12.00;74.79
69503;SHT31;56704;54.242;12.442;2023-10-08T00:08:41;12.00;74.75
69503;SHT31;56704;54.242;12.442;2023-10-08T00:11:09;12.01;75.13
69503;SHT31;56704;54.242;12.442;2023-10-08T00:13:39;11.98;75.05
69503;SHT31;56704;54.242;12.442;2023-10-08T00:16:06;11.98;75.16
69503;SHT31;56704;54.242;12.442;2023-10-08T00:18:36;11.97;75.25
69503;SHT31;56704;54.242;12.442;2023-10-08T00:21:03;11.95;74.93
69503;SHT31;56704;54.242;12.442;2023-10-08T00:23:42;11.94;74.26
69503;SHT31;56704;54.242;12.442;2023-10-08T00:26:18;11.93;74.29
69503;SHT31;56704;54.242;12.442;2023-10-08T00:28:54;11.93;74.10
69503;SHT31;56704;54.242;12.442;2023-10-08T00:46:33;11.79;72.72
69503;SHT31;56704;54.242;12.442;2023-10-08T00:49:08;11.74;72.79
69503;SHT31;56704;54.242;12.442;2023-10-08T00:52:03;11.77;73.38
69503;SHT31;56704;54.242;12.442;2023-10-08T01:23:27;11.39;75.94
69503;SHT31;56704;54.242;12.442;2023-10-08T01:48:04;11.01;77.75
69503;SHT31;56704;54.242;12.442;2023-10-08T01:50:31;10.98;78.19
69503;SHT31;56704;54.242;12.442;2023-10-08T01:53:00;10.95;78.62
69503;SHT31;56704;54.242;12.442;2023-10-08T01:55:26;10.92;78.94
69503;SHT31;56704;54.242;12.442;2023-10-08T01:57:55;10.89;79.00
69503;SHT31;56704;54.242;12.442;2023-10-08T02:00:22;10.87;79.31
69503;SHT31;56704;54.242;12.442;2023-10-08T02:02:50;10.84;79.47
69503;SHT31;56704;54.242;12.442;2023-10-08T02:05:18;10.79;79.61
69503;SHT31;56704;54.242;12.442;2023-10-08T02:07:46;10.75;79.74
69503;SHT31;56704;54.242;12.442;2023-10-08T02:10:13;10.72;79.69
69503;SHT31;56704;54.242;12.442;2023-10-08T02:12:40;10.65;79.77
69503;SHT31;56704;54.242;12.442;2023-10-08T02:15:08;10.55;79.75
69503;SHT31;56704;54.242;12.442;2023-10-08T02:17:37;10.48;80.23
69503;SHT31;56704;54.242;12.442;2023-10-08T02:20:04;10.40;80.35
69503;SHT31;56704;54.242;12.442;2023-10-08T02:22:33;10.37;80.52
69503;SHT31;56704;54.242;12.442;2023-10-08T02:24:59;10.32;80.65
69503;SHT31;56704;54.242;12.442;2023-10-08T02:27:27;10.23;80.62
69503;SHT31;56704;54.242;12.442;2023-10-08T02:29:53;10.09;80.57
69503;SHT31;56704;54.242;12.442;2023-10-08T02:32:20;9.96;80.92
69503;SHT31;56704;54.242;12.442;2023-10-08T02:34:47;9.86;81.05
69503;SHT31;56704;54.242;12.442;2023-10-08T02:37:15;9.71;81.14
69503;SHT31;56704;54.242;12.442;2023-10-08T02:39:43;9.53;81.23
69503;SHT31;56704;54.242;12.442;2023-10-08T02:42:10;9.42;81.64
69503;SHT31;56704;54.242;12.442;2023-10-08T02:44:39;9.28;81.76
69503;SHT31;56704;54.242;12.442;2023-10-08T02:47:08;9.24;82.09
69503;SHT31;56704;54.242;12.442;2023-10-08T02:49:35;9.20;82.26
69503;SHT31;56704;54.242;12.442;2023-10-08T02:52:02;9.10;82.11
69503;SHT31;56704;54.242;12.442;2023-10-08T02:54:29;8.99;82.39
69503;SHT31;56704;54.242;12.442;2023-10-08T02:57:03;8.99;82.78
69503;SHT31;56704;54.242;12.442;2023-10-08T02:59:35;8.92;82.59
69503;SHT31;56704;54.242;12.442;2023-10-08T03:02:06;8.92;82.97
69503;SHT31;56704;54.242;12.442;2023-10-08T03:04:39;8.99;83.09
69503;SHT31;56704;54.242;12.442;2023-10-08T03:07:06;8.96;82.82
69503;SHT31;56704;54.242;12.442;2023-10-08T03:09:37;8.97;82.94
69503;SHT31;56704;54.242;12.442;2023-10-08T03:12:08;8.94;82.92
69503;SHT31;56704;54.242;12.442;2023-10-08T03:14:35;8.88;82.99
69503;SHT31;56704;54.242;12.442;2023-10-08T03:17:14;8.85;82.93
69503;SHT31;56704;54.242;12.442;2023-10-08T03:19:46;8.67;82.68
69503;SHT31;56704;54.242;12.442;2023-10-08T03:22:13;8.59;82.76
69503;SHT31;56704;54.242;12.442;2023-10-08T03:24:44;8.48;82.88
69503;SHT31;56704;54.242;12.442;2023-10-08T03:27:15;8.45;83.26
69503;SHT31;56704;54.242;12.442;2023-10-08T03:29:45;8.39;83.70
69503;SHT31;56704;54.242;12.442;2023-10-08T03:32:14;8.50;84.03
69503;SHT31;56704;54.242;12.442;2023-10-08T03:34:45;8.61;83.81
69503;SHT31;56704;54.242;12.442;2023-10-08T03:37:13;8.69;83.54
69503;SHT31;56704;54.242;12.442;2023-10-08T03:39:46;8.66;83.38
69503;SHT31;56704;54.242;12.442;2023-10-08T03:42:27;8.67;83.59
69503;SHT31;56704;54.242;12.442;2023-10-08T03:45:00;8.73;83.34
69503;SHT31;56704;54.242;12.442;2023-10-08T03:47:36;8.69;83.26
69503;SHT31;56704;54.242;12.442;2023-10-08T03:50:05;8.66;83.30
69503;SHT31;56704;54.242;12.442;2023-10-08T03:52:33;8.64;83.40
69503;SHT31;56704;54.242;12.442;2023-10-08T03:55:03;8.61;83.39
69503;SHT31;56704;54.242;12.442;2023-10-08T03:57:39;8.66;83.54
69503;SHT31;56704;54.242;12.442;2023-10-08T04:00:10;8.64;83.22
69503;SHT31;56704;54.242;12.442;2023-10-08T04:02:40;8.59;83.36
69503;SHT31;56704;54.242;12.442;2023-10-08T04:05:11;8.60;83.39
69503;SHT31;56704;54.242;12.442;2023-10-08T04:07:45;8.59;83.38
69503;SHT31;56704;54.242;12.442;2023-10-08T04:10:32;8.61;83.48
69503;SHT31;56704;54.242;12.442;2023-10-08T04:13:26;8.67;83.57
69503;SHT31;56704;54.242;12.442;2023-10-08T04:15:56;8.66;83.56
69503;SHT31;56704;54.242;12.442;2023-10-08T04:18:23;8.59;83.35
69503;SHT31;56704;54.242;12.442;2023-10-08T04:20:49;8.38;83.09
69503;SHT31;56704;54.242;12.442;2023-10-08T04:23:30;8.30;83.46
69503;SHT31;56704;54.242;12.442;2023-10-08T04:25:56;8.30;83.91
69503;SHT31;56704;54.242;12.442;2023-10-08T04:28:24;8.35;84.24
69503;SHT31;56704;54.242;12.442;2023-10-08T04:30:55;8.43;84.27
69503;SHT31;56704;54.242;12.442;2023-10-08T04:33:27;8.33;84.04
69503;SHT31;56704;54.242;12.442;2023-10-08T04:35:59;8.22;84.03
69503;SHT31;56704;54.242;12.442;2023-10-08T04:38:28;8.06;84.15
69503;SHT31;56704;54.242;12.442;2023-10-08T04:40:55;7.99;84.43
69503;SHT31;56704;54.242;12.442;2023-10-08T04:43:27;8.01;84.99
69503;SHT31;56704;54.242;12.442;2023-10-08T04:45:57;7.98;84.84
69503;SHT31;56704;54.242;12.442;2023-10-08T04:48:25;7.92;84.84
69503;SHT31;56704;54.242;12.442;2023-10-08T04:50:55;7.85;84.92
69503;SHT31;56704;54.242;12.442;2023-10-08T04:53:29;7.81;85.02
69503;SHT31;56704;54.242;12.442;2023-10-08T04:56:02;7.75;85.12
69503;SHT31;56704;54.242;12.442;2023-10-08T04:58:31;7.73;85.29
69503;SHT31;56704;54.242;12.442;2023-10-08T05:01:03;7.71;85.41
69503;SHT31;56704;54.242;12.442;2023-10-08T05:03:44;7.77;85.51
69503;SHT31;56704;54.242;12.442;2023-10-08T05:06:33;7.81;85.52
69503;SHT31;56704;54.242;12.442;2023-10-08T05:09:15;7.94;85.56
69503;SHT31;56704;54.242;12.442;2023-10-08T05:11:49;7.91;85.27
69503;SHT31;56704;54.242;12.442;2023-10-08T05:14:34;7.70;84.93
69503;SHT31;56704;54.242;12.442;2023-10-08T05:17:06;7.58;85.43
69503;SHT31;56704;54.242;12.442;2023-10-08T05:19:37;7.54;85.71
69503;SHT31;56704;54.242;12.442;2023-10-08T05:22:26;7.40;85.60
69503;SHT31;56704;54.242;12.442;2023-10-08T05:25:20;7.27;85.81
69503;SHT31;56704;54.242;12.442;2023-10-08T05:28:00;7.19;86.12
69503;SHT31;56704;54.242;12.442;2023-10-08T05:30:35;7.09;86.27
69503;SHT31;56704;54.242;12.442;2023-10-08T05:33:06;6.93;86.38
69503;SHT31;56704;54.242;12.442;2023-10-08T05:35:38;6.88;86.48
69503;SHT31;56704;54.242;12.442;2023-10-08T05:38:25;6.79;86.55
69503;SHT31;56704;54.242;12.442;2023-10-08T05:41:13;6.82;86.87
69503;SHT31;56704;54.242;12.442;2023-10-08T05:44:04;6.96;87.12
69503;SHT31;56704;54.242;12.442;2023-10-08T05:46:49;7.07;87.22
69503;SHT31;56704;54.242;12.442;2023-10-08T05:49:33;7.23;87.36
69503;SHT31;56704;54.242;12.442;2023-10-08T05:52:07;7.34;87.06
69503;SHT31;56704;54.242;12.442;2023-10-08T05:54:50;7.42;86.69
69503;SHT31;56704;54.242;12.442;2023-10-08T05:57:34;7.44;86.52
69503;SHT31;56704;54.242;12.442;2023-10-08T06:00:06;7.37;86.31
69503;SHT31;56704;54.242;12.442;2023-10-08T06:02:50;7.42;86.33
69503;SHT31;56704;54.242;12.442;2023-10-08T06:05:36;7.48;86.14
69503;SHT31;56704;54.242;12.442;2023-10-08T06:08:11;7.64;86.21
69503;SHT31;56704;54.242;12.442;2023-10-08T06:10:39;7.71;85.52
69503;SHT31;56704;54.242;12.442;2023-10-08T06:13:13;7.73;84.90
69503;SHT31;56704;54.242;12.442;2023-10-08T06:15:42;7.68;84.56
69503;SHT31;56704;54.242;12.442;2023-10-08T06:18:14;7.64;84.20
69503;SHT31;56704;54.242;12.442;2023-10-08T06:20:41;7.70;84.21
69503;SHT31;56704;54.242;12.442;2023-10-08T06:23:10;7.84;84.14
69503;SHT31;56704;54.242;12.442;2023-10-08T06:25:38;7.82;83.02
69503;SHT31;56704;54.242;12.442;2023-10-08T06:28:13;7.91;82.62
69503;SHT31;56704;54.242;12.442;2023-10-08T06:30:40;7.95;81.79
69503;SHT31;56704;54.242;12.442;2023-10-08T06:33:07;8.03;81.20
69503;SHT31;56704;54.242;12.442;2023-10-08T06:35:34;8.09;81.27
69503;SHT31;56704;54.242;12.442;2023-10-08T06:38:03;8.13;80.81
69503;SHT31;56704;54.242;12.442;2023-10-08T06:40:33;8.15;80.56
69503;SHT31;56704;54.242;12.442;2023-10-08T06:43:09;8.30;80.98
69503;SHT31;56704;54.242;12.442;2023-10-08T06:45:43;8.49;81.21
69503;SHT31;56704;54.242;12.442;2023-10-08T06:48:10;8.64;80.85
69503;SHT31;56704;54.242;12.442;2023-10-08T06:50:43;8.96;81.68
69503;SHT31;56704;54.242;12.442;2023-10-08T06:53:12;9.31;82.26
69503;SHT31;56704;54.242;12.442;2023-10-08T06:55:40;9.58;81.47
69503;SHT31;56704;54.242;12.442;2023-10-08T06:58:07;9.86;80.89
69503;SHT31;56704;54.242;12.442;2023-10-08T07:00:35;10.02;79.08
69503;SHT31;56704;54.242;12.442;2023-10-08T07:03:09;10.10;77.59
69503;SHT31;56704;54.242;12.442;2023-10-08T07:05:36;10.13;75.96
69503;SHT31;56704;54.242;12.442;2023-10-08T07:08:07;10.24;76.31
69503;SHT31;56704;54.242;12.442;2023-10-08T07:10:36;10.40;74.22
69503;SHT31;56704;54.242;12.442;2023-10-08T07:13:03;10.40;73.69
69503;SHT31;56704;54.242;12.442;2023-10-08T07:15:33;10.36;73.62
69503;SHT31;56704;54.242;12.442;2023-10-08T07:18:04;10.30;74.83
69503;SHT31;56704;54.242;12.442;2023-10-08T07:20:35;10.36;75.12
69503;SHT31;56704;54.242;12.442;2023-10-08T07:23:06;10.37;74.74
69503;SHT31;56704;54.242;12.442;2023-10-08T07:25:46;10.61;75.75
69503;SHT31;56704;54.242;12.442;2023-10-08T07:28:18;10.81;74.74
69503;SHT31;56704;54.242;12.442;2023-10-08T07:30:45;10.99;74.83
69503;SHT31;56704;54.242;12.442;2023-10-08T07:33:13;11.26;74.87
69503;SHT31;56704;54.242;12.442;2023-10-08T07:35:44;11.52;74.34
69503;SHT31;56704;54.242;12.442;2023-10-08T07:38:17;11.74;74.31
69503;SHT31;56704;54.242;12.442;2023-10-08T07:40:45;11.95;72.85
69503;SHT31;56704;54.242;12.442;2023-10-08T07:43:12;12.16;72.85
69503;SHT31;56704;54.242;12.442;2023-10-08T07:45:39;12.27;71.04
69503;SHT31;56704;54.242;12.442;2023-10-08T07:48:11;12.38;70.90
69503;SHT31;56704;54.242;12.442;2023-10-08T07:50:43;12.55;71.19
69503;SHT31;56704;54.242;12.442;2023-10-08T07:53:11;12.56;68.70
69503;SHT31;56704;54.242;12.442;2023-10-08T07:55:45;12.83;69.63
69503;SHT31;56704;54.242;12.442;2023-10-08T07:58:14;13.19;69.61
69503;SHT31;56704;54.242;12.442;2023-10-08T08:00:41;13.22;68.48
69503;SHT31;56704;54.242;12.442;2023-10-08T08:03:18;13.28;67.03
69503;SHT31;56704;54.242;12.442;2023-10-08T08:05:44;13.48;68.07
69503;SHT31;56704;54.242;12.442;2023-10-08T08:08:11;13.82;68.32
69503;SHT31;56704;54.242;12.442;2023-10-08T08:10:43;13.84;63.32
69503;SHT31;56704;54.242;12.442;2023-10-08T08:13:11;13.89;65.59
69503;SHT31;56704;54.242;12.442;2023-10-08T08:15:39;13.84;66.76
69503;SHT31;56704;54.242;12.442;2023-10-08T08:18:08;14.00;65.80
69503;SHT31;56704;54.242;12.442;2023-10-08T08:20:44;14.24;67.25
69503;SHT31;56704;54.242;12.442;2023-10-08T08:23:12;14.46;66.38
69503;SHT31;56704;54.242;12.442;2023-10-08T08:25:40;14.76;66.28
69503;SHT31;56704;54.242;12.442;2023-10-08T08:28:33;15.07;64.91
69503;SHT31;56704;54.242;12.442;2023-10-08T08:31:03;15.39;63.29
69503;SHT31;56704;54.242;12.442;2023-10-08T08:33:34;15.52;60.75
69503;SHT31;56704;54.242;12.442;2023-10-08T08:36:18;15.73;61.26
69503;SHT31;56704;54.242;12.442;2023-10-08T08:38:44;15.90;59.86
69503;SHT31;56704;54.242;12.442;2023-10-08T08:41:11;16.06;59.73
69503;SHT31;56704;54.242;12.442;2023-10-08T08:43:47;15.93;61.35
69503;SHT31;56704;54.242;12.442;2023-10-08T08:46:14;16.00;61.61
69503;SHT31;56704;54.242;12.442;2023-10-08T08:48:43;15.96;62.48
69503;SHT31;56704;54.242;12.442;2023-10-08T08:51:11;15.78;62.53
69503;SHT31;56704;54.242;12.442;2023-10-08T08:53:38;15.69;62.87
69503;SHT31;56704;54.242;12.442;2023-10-08T08:56:07;15.81;62.86
69503;SHT31;56704;54.242;12.442;2023-10-08T08:58:36;15.75;63.69
69503;SHT31;56704;54.242;12.442;2023-10-08T09:01:06;15.59;63.00
69503;SHT31;56704;54.242;12.442;2023-10-08T09:03:35;15.42;63.77
69503;SHT31;56704;54.242;12.442;2023-10-08T09:06:02;15.20;64.63
69503;SHT31;56704;54.242;12.442;2023-10-08T09:08:33;15.03;65.37
69503;SHT31;56704;54.242;12.442;2023-10-08T09:11:00;14.88;65.50
69503;SHT31;56704;54.242;12.442;2023-10-08T09:13:27;14.91;66.03
69503;SHT31;56704;54.242;12.442;2023-10-08T09:15:57;14.94;65.37
69503;SHT31;56704;54.242;12.442;2023-10-08T09:18:25;14.80;65.91
69503;SHT31;56704;54.242;12.442;2023-10-08T09:20:53;14.93;66.86
69503;SHT31;56704;54.242;12.442;2023-10-08T09:23:20;14.90;67.10
69503;SHT31;56704;54.242;12.442;2023-10-08T09:25:48;14.90;67.49
69503;SHT31;56704;54.242;12.442;2023-10-08T09:28:17;15.26;66.01
69503;SHT31;56704;54.242;12.442;2023-10-08T09:30:44;15.65;65.50
69503;SHT31;56704;54.242;12.442;2023-10-08T09:33:14;15.99;64.33
69503;SHT31;56704;54.242;12.442;2023-10-08T09:35:42;16.33;63.23
69503;SHT31;56704;54.242;12.442;2023-10-08T09:38:09;16.81;61.63
69503;SHT31;56704;54.242;12.442;2023-10-08T09:40:37;17.25;60.42
69503;SHT31;56704;54.242;12.442;2023-10-08T09:43:04;17.52;57.20
69503;SHT31;56704;54.242;12.442;2023-10-08T09:45:33;17.77;59.35
69503;SHT31;56704;54.242;12.442;2023-10-08T09:48:06;17.91;56.65
69503;SHT31;56704;54.242;12.442;2023-10-08T09:50:40;17.77;57.00
69503;SHT31;56704;54.242;12.442;2023-10-08T09:53:09;17.50;56.71
69503;SHT31;56704;54.242;12.442;2023-10-08T09:55:44;17.22;58.05
69503;SHT31;56704;54.242;12.442;2023-10-08T09:58:12;16.92;57.71
69503;SHT31;56704;54.242;12.442;2023-10-08T10:00:40;16.74;58.52
69503;SHT31;56704;54.242;12.442;2023-10-08T10:03:10;16.51;59.10
69503;SHT31;56704;54.242;12.442;2023-10-08T10:05:37;16.30;59.66
69503;SHT31;56704;54.242;12.442;2023-10-08T10:08:05;16.19;60.49
69503;SHT31;56704;54.242;12.442;2023-10-08T10:10:37;16.26;60.33
69503;SHT31;56704;54.242;12.442;2023-10-08T10:13:05;16.20;60.29
69503;SHT31;56704;54.242;12.442;2023-10-08T10:15:33;16.24;60.44
69503;SHT31;56704;54.242;12.442;2023-10-08T10:18:08;16.37;60.45
69503;SHT31;56704;54.242;12.442;2023-10-08T10:20:39;16.47;59.61
69503;SHT31;56704;54.242;12.442;2023-10-08T10:23:37;16.30;58.12
69503;SHT31;56704;54.242;12.442;2023-10-08T10:26:21;16.06;58.77
69503;SHT31;56704;54.242;12.442;2023-10-08T10:29:20;15.89;58.61
69503;SHT31;56704;54.242;12.442;2023-10-08T10:31:47;15.81;60.48
69503;SHT31;56704;54.242;12.442;2023-10-08T10:34:17;15.65;58.84
69503;SHT31;56704;54.242;12.442;2023-10-08T10:36:46;15.49;60.92
69503;SHT31;56704;54.242;12.442;2023-10-08T10:39:15;15.44;61.14
69503;SHT31;56704;54.242;12.442;2023-10-08T10:41:44;15.41;61.55
69503;SHT31;56704;54.242;12.442;2023-10-08T10:44:11;15.49;62.09
69503;SHT31;56704;54.242;12.442;2023-10-08T10:46:40;15.58;62.05
69503;SHT31;56704;54.242;12.442;2023-10-08T10:49:08;15.63;61.42
69503;SHT31;56704;54.242;12.442;2023-10-08T10:51:44;15.73;60.56
69503;SHT31;56704;54.242;12.442;2023-10-08T10:54:12;15.68;60.98
69503;SHT31;56704;54.242;12.442;2023-10-08T10:56:46;15.69;61.06
69503;SHT31;56704;54.242;12.442;2023-10-08T10:59:18;15.65;60.25
69503;SHT31;56704;54.242;12.442;2023-10-08T11:01:47;15.62;60.48
69503;SHT31;56704;54.242;12.442;2023-10-08T11:04:18;15.66;60.82
69503;SHT31;56704;54.242;12.442;2023-10-08T11:06:47;15.78;60.42
69503;SHT31;56704;54.242;12.442;2023-10-08T11:09:14;15.77;57.85
69503;SHT31;56704;54.242;12.442;2023-10-08T11:11:41;16.02;58.20
69503;SHT31;56704;54.242;12.442;2023-10-08T11:14:12;16.17;56.52
69503;SHT31;56704;54.242;12.442;2023-10-08T11:16:44;16.27;56.38
69503;SHT31;56704;54.242;12.442;2023-10-08T11:19:11;16.40;56.64
69503;SHT31;56704;54.242;12.442;2023-10-08T11:21:50;16.50;56.10
69503;SHT31;56704;54.242;12.442;2023-10-08T11:24:29;16.47;54.96
69503;SHT31;56704;54.242;12.442;2023-10-08T11:26:59;16.41;52.64
69503;SHT31;56704;54.242;12.442;2023-10-08T11:29:43;16.27;52.70
69503;SHT31;56704;54.242;12.442;2023-10-08T11:32:12;16.41;53.09
69503;SHT31;56704;54.242;12.442;2023-10-08T11:34:41;16.49;52.04
69503;SHT31;56704;54.242;12.442;2023-10-08T11:37:08;16.61;52.15
69503;SHT31;56704;54.242;12.442;2023-10-08T11:39:45;16.77;51.93
69503;SHT31;56704;54.242;12.442;2023-10-08T11:42:12;16.74;51.87
69503;SHT31;56704;54.242;12.442;2023-10-08T11:45:07;16.75;52.17
69503;SHT31;56704;54.242;12.442;2023-10-08T11:47:52;16.74;52.26
69503;SHT31;56704;54.242;12.442;2023-10-08T11:50:25;16.80;51.41
69503;SHT31;56704;54.242;12.442;2023-10-08T11:53:00;16.80;49.62
69503;SHT31;56704;54.242;12.442;2023-10-08T11:55:29;16.77;51.03
69503;SHT31;56704;54.242;12.442;2023-10-08T11:58:00;16.61;49.60
69503;SHT31;56704;54.242;12.442;2023-10-08T12:00:29;16.54;48.74
69503;SHT31;56704;54.242;12.442;2023-10-08T12:02:56;16.51;50.46
69503;SHT31;56704;54.242;12.442;2023-10-08T12:05:22;16.56;49.26
69503;SHT31;56704;54.242;12.442;2023-10-08T12:07:50;16.59;50.62
69503;SHT31;56704;54.242;12.442;2023-10-08T12:10:17;16.63;50.12
69503;SHT31;56704;54.242;12.442;2023-10-08T12:12:48;17.07;47.46
69503;SHT31;56704;54.242;12.442;2023-10-08T12:15:17;17.66;46.82
69503;SHT31;56704;54.242;12.442;2023-10-08T12:17:47;18.30;46.60
69503;SHT31;56704;54.242;12.442;2023-10-08T12:20:35;18.64;44.65
69503;SHT31;56704;54.242;12.442;2023-10-08T12:23:03;18.73;45.23
69503;SHT31;56704;54.242;12.442;2023-10-08T12:25:29;18.72;43.18
69503;SHT31;56704;54.242;12.442;2023-10-08T12:27:57;18.55;41.03
69503;SHT31;56704;54.242;12.442;2023-10-08T12:30:27;18.59;40.81
69503;SHT31;56704;54.242;12.442;2023-10-08T12:32:59;18.72;43.67
69503;SHT31;56704;54.242;12.442;2023-10-08T12:35:26;18.73;43.63
69503;SHT31;56704;54.242;12.442;2023-10-08T12:37:55;18.59;44.11
69503;SHT31;56704;54.242;12.442;2023-10-08T12:40:22;18.66;42.93
69503;SHT31;56704;54.242;12.442;2023-10-08T12:42:50;18.59;41.90
69503;SHT31;56704;54.242;12.442;2023-10-08T12:45:16;18.47;41.06
69503;SHT31;56704;54.242;12.442;2023-10-08T12:47:47;18.58;43.28
69503;SHT31;56704;54.242;12.442;2023-10-08T12:50:16;18.95;41.98
69503;SHT31;56704;54.242;12.442;2023-10-08T12:52:48;18.79;40.95
69503;SHT31;56704;54.242;12.442;2023-10-08T12:55:20;18.81;43.31
69503;SHT31;56704;54.242;12.442;2023-10-08T12:57:50;18.72;41.55
69503;SHT31;56704;54.242;12.442;2023-10-08T13:00:21;18.55;43.33
69503;SHT31;56704;54.242;12.442;2023-10-08T13:02:49;18.54;45.13
69503;SHT31;56704;54.242;12.442;2023-10-08T13:05:20;18.20;44.70
69503;SHT31;56704;54.242;12.442;2023-10-08T13:07:53;17.84;43.47
69503;SHT31;56704;54.242;12.442;2023-10-08T13:10:21;18.07;44.43
69503;SHT31;56704;54.242;12.442;2023-10-08T13:12:48;17.86;42.55
69503;SHT31;56704;54.242;12.442;2023-10-08T13:15:14;17.76;44.26
69503;SHT31;56704;54.242;12.442;2023-10-08T13:17:41;17.39;45.77
69503;SHT31;56704;54.242;12.442;2023-10-08T13:20:09;17.22;46.11
69503;SHT31;56704;54.242;12.442;2023-10-08T13:22:38;17.00;46.36
69503;SHT31;56704;54.242;12.442;2023-10-08T13:25:05;16.81;46.08
69503;SHT31;56704;54.242;12.442;2023-10-08T13:27:33;16.65;46.52
69503;SHT31;56704;54.242;12.442;2023-10-08T13:30:06;16.60;48.69
69503;SHT31;56704;54.242;12.442;2023-10-08T13:32:34;16.67;48.85
69503;SHT31;56704;54.242;12.442;2023-10-08T13:35:02;16.54;48.54
69503;SHT31;56704;54.242;12.442;2023-10-08T13:37:29;16.64;47.37
69503;SHT31;56704;54.242;12.442;2023-10-08T13:39:57;16.65;48.24
69503;SHT31;56704;54.242;12.442;2023-10-08T13:42:24;16.63;48.48
69503;SHT31;56704;54.242;12.442;2023-10-08T13:44:52;16.56;46.05
69503;SHT31;56704;54.242;12.442;2023-10-08T13:47:19;16.30;46.97
69503;SHT31;56704;54.242;12.442;2023-10-08T13:49:48;16.30;46.96
69503;SHT31;56704;54.242;12.442;2023-10-08T13:52:15;16.49;48.98
69503;SHT31;56704;54.242;12.442;2023-10-08T13:54:42;16.70;47.83
69503;SHT31;56704;54.242;12.442;2023-10-08T13:57:17;16.77;47.98
69503;SHT31;56704;54.242;12.442;2023-10-08T13:59:44;16.60;47.30
69503;SHT31;56704;54.242;12.442;2023-10-08T14:02:11;16.41;47.11
69503;SHT31;56704;54.242;12.442;2023-10-08T14:04:40;16.23;46.66
69503;SHT31;56704;54.242;12.442;2023-10-08T14:07:09;16.06;47.19
69503;SHT31;56704;54.242;12.442;2023-10-08T14:09:37;15.92;49.20
69503;SHT31;56704;54.242;12.442;2023-10-08T14:12:04;15.79;48.68
69503;SHT31;56704;54.242;12.442;2023-10-08T14:14:33;15.59;50.35
69503;SHT31;56704;54.242;12.442;2023-10-08T14:17:00;15.45;50.46
69503;SHT31;56704;54.242;12.442;2023-10-08T14:19:31;15.37;49.04
69503;SHT31;56704;54.242;12.442;2023-10-08T14:22:04;15.23;49.87
69503;SHT31;56704;54.242;12.442;2023-10-08T14:24:33;15.14;49.75
69503;SHT31;56704;54.242;12.442;2023-10-08T14:27:03;14.97;50.23
69503;SHT31;56704;54.242;12.442;2023-10-08T14:29:37;14.96;51.92
69503;SHT31;56704;54.242;12.442;2023-10-08T14:32:05;14.97;51.64
69503;SHT31;56704;54.242;12.442;2023-10-08T14:34:34;14.84;49.93
69503;SHT31;56704;54.242;12.442;2023-10-08T14:37:15;14.76;50.48
69503;SHT31;56704;54.242;12.442;2023-10-08T14:39:58;14.63;52.26
69503;SHT31;56704;54.242;12.442;2023-10-08T14:42:42;14.53;53.25
69503;SHT31;56704;54.242;12.442;2023-10-08T14:45:23;14.37;52.33
69503;SHT31;56704;54.242;12.442;2023-10-08T14:47:52;14.22;53.84
69503;SHT31;56704;54.242;12.442;2023-10-08T14:50:20;14.19;54.22
69503;SHT31;56704;54.242;12.442;2023-10-08T14:52:47;14.08;54.59
69503;SHT31;56704;54.242;12.442;2023-10-08T14:55:14;13.98;54.13
69503;SHT31;56704;54.242;12.442;2023-10-08T14:57:41;13.86;54.74
69503;SHT31;56704;54.242;12.442;2023-10-08T15:00:09;13.78;53.87
69503;SHT31;56704;54.242;12.442;2023-10-08T15:02:37;13.71;55.57
69503;SHT31;56704;54.242;12.442;2023-10-08T15:05:04;13.70;54.53
69503;SHT31;56704;54.242;12.442;2023-10-08T15:07:32;13.68;55.02
69503;SHT31;56704;54.242;12.442;2023-10-08T15:09:59;13.64;54.73
69503;SHT31;56704;54.242;12.442;2023-10-08T15:12:26;13.60;56.18
69503;SHT31;56704;54.242;12.442;2023-10-08T15:14:53;13.54;56.17
69503;SHT31;56704;54.242;12.442;2023-10-08T15:17:20;13.44;55.33
69503;SHT31;56704;54.242;12.442;2023-10-08T15:19:48;13.39;56.05
69503;SHT31;56704;54.242;12.442;2023-10-08T15:22:16;13.36;55.79
69503;SHT31;56704;54.242;12.442;2023-10-08T15:24:43;13.26;56.33
69503;SHT31;56704;54.242;12.442;2023-10-08T15:27:10;13.19;55.23
69503;SHT31;56704;54.242;12.442;2023-10-08T15:29:37;13.13;56.20
69503;SHT31;56704;54.242;12.442;2023-10-08T15:32:04;13.04;56.51
69503;SHT31;56704;54.242;12.442;2023-10-08T15:34:31;13.04;57.01
69503;SHT31;56704;54.242;12.442;2023-10-08T15:36:59;12.95;55.53
69503;SHT31;56704;54.242;12.442;2023-10-08T15:39:26;12.88;55.93
69503;SHT31;56704;54.242;12.442;2023-10-08T15:41:53;12.83;56.29
69503;SHT31;56704;54.242;12.442;2023-10-08T15:44:20;12.78;56.46
69503;SHT31;56704;54.242;12.442;2023-10-08T15:46:47;12.71;57.33
69503;SHT31;56704;54.242;12.442;2023-10-08T15:49:14;12.63;57.69
69503;SHT31;56704;54.242;12.442;2023-10-08T15:51:41;12.52;56.43
69503;SHT31;56704;54.242;12.442;2023-10-08T15:54:09;12.48;57.83
69503;SHT31;56704;54.242;12.442;2023-10-08T15:56:37;12.37;55.06
69503;SHT31;56704;54.242;12.442;2023-10-08T15:59:04;12.28;56.76
69503;SHT31;56704;54.242;12.442;2023-10-08T16:01:30;12.18;56.36
69503;SHT31;56704;54.242;12.442;2023-10-08T16:03:57;12.10;56.75
69503;SHT31;56704;54.242;12.442;2023-10-08T16:06:24;12.05;57.23
69503;SHT31;56704;54.242;12.442;2023-10-08T16:08:50;12.02;57.55
69503;SHT31;56704;54.242;12.442;2023-10-08T16:11:18;11.98;58.77
69503;SHT31;56704;54.242;12.442;2023-10-08T16:13:45;11.91;57.47
69503;SHT31;56704;54.242;12.442;2023-10-08T16:16:12;11.88;58.75
69503;SHT31;56704;54.242;12.442;2023-10-08T16:18:39;11.81;59.99
69503;SHT31;56704;54.242;12.442;2023-10-08T16:21:06;11.81;60.73
69503;SHT31;56704;54.242;12.442;2023-10-08T16:23:35;11.77;61.08
69503;SHT31;56704;54.242;12.442;2023-10-08T16:26:01;11.73;61.57
69503;SHT31;56704;54.242;12.442;2023-10-08T16:28:29;11.67;61.90
69503;SHT31;56704;54.242;12.442;2023-10-08T16:30:57;11.57;61.44
69503;SHT31;56704;54.242;12.442;2023-10-08T16:33:24;11.52;62.03
69503;SHT31;56704;54.242;12.442;2023-10-08T16:35:55;11.47;62.57
69503;SHT31;56704;54.242;12.442;2023-10-08T16:38:21;11.35;62.56
69503;SHT31;56704;54.242;12.442;2023-10-08T16:40:48;11.28;62.21
69503;SHT31;56704;54.242;12.442;2023-10-08T16:43:14;11.19;62.92
69503;SHT31;56704;54.242;12.442;2023-10-08T16:45:44;11.12;63.67
69503;SHT31;56704;54.242;12.442;2023-10-08T16:48:11;11.01;64.25